CDT,Max TemperatureF,Mean TemperatureF,Min TemperatureF,Max Dew PointF,MeanDew PointF,Min DewpointF,Max Humidity, Mean Humidity, Min Humidity, Max Sea Level PressureIn, Mean Sea Level PressureIn, Min Sea Level PressureIn, Max VisibilityMiles, Mean VisibilityMiles, Min VisibilityMiles, Max Wind SpeedMPH, Mean Wind SpeedMPH, Max Gust SpeedMPH,PrecipitationIn, CloudCover, Events, WindDirDegrees
2013-3-1,32,29,26,29,25,23,94,84,69,30.23,30.15,30.08,10,7,1,14,8,,0.00,8,Rain-Snow,335
2013-3-2,32,22,13,23,18,10,88,70,51,30.27,30.24,30.21,10,10,5,13,8,18,0.00,4,Snow,315
2013-3-3,33,20,8,24,15,5,92,70,54,30.22,30.12,30.03,10,10,5,9,4,,0.00,5,,128
2013-3-4,43,38,32,32,29,24,87,75,59,30.04,29.88,29.79,10,10,5,21,12,24,0.00,3,Rain-Snow,90
2013-3-5,35,33,31,32,28,21,96,82,63,30.15,29.96,29.84,10,8,0,25,11,34,0.00,8,Rain-Snow,305
2013-3-6,33,28,22,24,22,19,85,74,65,30.37,30.32,30.15,10,10,10,21,13,26,0.00,5,,322
2013-3-7,40,27,14,31,23,13,93,80,62,30.43,30.37,30.32,10,9,5,10,3,,0.00,0,,88
2013-3-8,45,36,27,33,30,25,91,76,60,30.41,30.33,30.19,10,9,5,14,8,21,0.00,0,Rain,116
2013-3-9,57,47,37,42,37,32,92,72,44,30.17,29.96,29.76,10,9,3,16,11,23,0.41,6,Rain,134
2013-3-10,55,48,39,51,47,36,94,88,48,29.76,29.70,29.60,10,8,2,20,9,29,0.89,7,Rain-Thunderstorm,187
2013-3-11,39,36,32,38,31,25,94,86,71,29.97,29.79,29.69,10,8,3,22,15,29,0.01,8,,254
2013-3-12,43,35,27,30,26,22,85,72,55,30.21,30.08,29.96,10,10,3,22,10,32,0.00,4,Snow,267
2013-3-13,38,32,26,26,19,15,85,62,40,30.42,30.35,30.21,10,10,7,21,12,24,0.00,2,Snow,295
2013-3-14,55,41,27,36,28,22,90,67,42,30.38,30.21,30.09,10,10,10,15,5,20,0.00,3,Rain,160
2013-3-15,65,48,32,47,39,30,93,70,46,30.10,29.86,29.65,10,9,5,12,3,,0.00,0,,146
2013-3-16,62,50,37,47,37,31,93,79,57,30.08,29.92,29.63,10,7,2,22,9,28,0.00,6,,335
2013-3-17,39,36,32,33,30,26,95,81,66,30.13,30.03,29.83,10,9,2,15,9,21,0.06,7,Rain-Snow,61
2013-3-18,50,41,32,36,31,18,97,78,40,30.02,29.80,29.70,10,7,2,21,10,32,0.03,5,Rain,303
2013-3-19,43,36,28,20,16,11,63,47,29,30.21,30.13,30.00,10,10,10,15,11,23,0.00,0,,269
2013-3-20,35,28,21,26,14,8,73,56,37,30.29,30.20,30.13,10,10,7,22,12,28,0.00,2,Snow,304
2013-3-21,36,26,16,21,13,9,82,59,35,30.13,30.07,29.99,10,10,10,8,5,,0.00,0,,40
2013-3-22,39,31,23,25,21,19,84,64,45,30.06,30.03,30.00,10,10,10,8,3,,0.00,6,,85
2013-3-23,52,42,34,32,25,22,79,53,36,30.07,29.99,29.89,10,10,10,17,5,25,0.00,5,Rain,45
2013-3-24,33,33,31,32,30,29,99,94,88,29.94,29.76,29.64,7,2,0,22,13,28,0.12,8,Rain-Snow,358
2013-3-25,34,32,30,29,27,25,93,84,71,30.19,30.00,29.84,10,7,1,14,10,20,0.00,7,Rain-Snow,300
2013-3-26,39,34,28,26,25,22,83,69,49,30.35,30.29,30.19,10,10,10,10,7,,0.00,3,,285
2013-3-27,42,32,22,26,23,19,87,66,45,30.39,30.35,30.31,10,10,10,7,4,,0.00,0,,180
2013-3-28,47,38,30,33,29,23,83,67,50,30.37,30.32,30.27,10,10,10,13,5,,0.00,2,,94
2013-3-29,57,46,34,43,37,31,87,71,55,30.28,30.24,30.21,10,10,7,9,6,,0.00,1,,63
2013-3-30,54,45,36,46,41,35,95,82,55,30.21,30.06,29.92,10,7,1,18,6,23,0.02,4,Rain,158
2013-3-31,64,53,42,48,42,32,95,71,41,29.99,29.90,29.85,10,7,2,15,8,24,0.00,5,,287